Time;durP1;ratioP1;P1;durP2;ratioP2;P2;SDS_P1;SDS_P2;PMS_P1;PMS_P2;Temp;Humidity;BMP_temperature;BMP_pressure;BME280_temperature;BME280_humidity;BME280_pressure;Samples;Min_cycle;Max_cycle;Signal;HPM_P1;HPM_P2
2022/10/11 00:00:46;;;;;;;;;;;;;;;16.98;79.10;100683.56;5020331;28;20022;-71
2022/10/11 00:03:13;;;;;;;;;;;;;;;16.94;79.16;100684.91;5020277;28;19918;-73
2022/10/11 00:05:39;;;;;;;;;;;;;;;16.87;78.32;100685.66;5019313;28;19921;-72
2022/10/11 00:08:04;;;;;;;;;;;;;;;16.98;77.57;100680.88;5019422;28;20222;-73
2022/10/11 00:10:31;;;;;;;;;;;;;;;16.88;76.87;100678.44;5020191;28;19921;-71
2022/10/11 00:12:56;;;;;;;;;;;;;;;16.77;76.58;100678.88;5020129;28;19930;-71
2022/10/11 00:15:22;;;;;;;;;;;;;;;16.72;75.86;100676.75;5019271;28;19922;-71
2022/10/11 00:17:47;;;;;;;;;;;;;;;16.88;74.48;100671.25;5020320;28;19917;-73
2022/10/11 00:20:13;;;;;;;;;;;;;;;16.79;74.38;100671.50;5019493;28;19922;-73
2022/10/11 00:22:39;;;;;;;;;;;;;;;16.89;73.81;100674.75;5020944;28;19918;-73
2022/10/11 00:25:05;;;;;;;;;;;;;;;17.00;72.90;100676.16;5018748;28;19980;-71
2022/10/11 00:27:30;;;;;;;;;;;;;;;16.96;72.95;100681.06;5019121;28;19917;-71
2022/10/11 00:29:56;;;;;;;;;;;;;;;16.81;73.60;100675.66;5019876;28;19936;-73
2022/10/11 00:32:21;;;;;;;;;;;;;;;16.69;73.17;100654.88;5019029;28;20262;-73
2022/10/11 00:34:46;;;;;;;;;;;;;;;16.76;73.35;100680.72;5019835;28;19929;-73
2022/10/11 00:37:12;;;;;;;;;;;;;;;16.76;73.69;100682.56;5019015;28;19917;-73
2022/10/11 00:39:37;;;;;;;;;;;;;;;16.75;73.09;100668.34;5021413;28;19922;-71
2022/10/11 00:42:02;;;;;;;;;;;;;;;16.71;73.63;100666.22;5019767;28;20198;-73
2022/10/11 00:44:28;;;;;;;;;;;;;;;16.78;73.09;100662.66;5019763;28;19925;-71
2022/10/11 00:46:56;;;;;;;;;;;;;;;16.77;73.17;100662.84;5037163;28;19913;-73
2022/10/11 00:49:42;;;;;;;;;;;;;;;16.70;73.06;100660.03;5020059;28;19944;-73
2022/10/11 00:52:13;;;;;;;;;;;;;;;16.76;72.71;100655.81;5016183;28;19918;-73
2022/10/11 00:54:40;;;;;;;;;;;;;;;16.72;72.84;100652.69;5019679;28;20177;-74
2022/10/11 00:57:09;;;;;;;;;;;;;;;16.71;72.92;100652.84;5004586;28;19929;-73
2022/10/11 00:59:40;;;;;;;;;;;;;;;16.74;72.49;100655.16;5021884;28;19921;-70
2022/10/11 01:02:06;;;;;;;;;;;;;;;16.75;72.66;100651.47;5020879;28;20222;-70
2022/10/11 01:04:31;;;;;;;;;;;;;;;16.69;72.59;100653.03;5019829;28;19933;-73
2022/10/11 01:06:57;;;;;;;;;;;;;;;16.70;72.52;100648.50;5018526;28;20166;-70
2022/10/11 01:09:22;;;;;;;;;;;;;;;16.73;72.24;100642.81;5021786;28;19921;-71
2022/10/11 01:11:49;;;;;;;;;;;;;;;16.68;71.86;100635.31;5020781;28;19952;-70
2022/10/11 01:14:20;;;;;;;;;;;;;;;16.52;70.79;100636.22;5019000;28;19929;-71
2022/10/11 01:16:57;;;;;;;;;;;;;;;16.38;72.22;100645.00;5018384;28;20229;-70
2022/10/11 01:19:28;;;;;;;;;;;;;;;16.34;72.48;100638.38;5016118;28;20040;-74
2022/10/11 01:22:05;;;;;;;;;;;;;;;16.29;73.35;100640.75;5020835;28;19917;-71
2022/10/11 01:24:39;;;;;;;;;;;;;;;16.30;73.34;100634.38;5021593;28;19917;-73
2022/10/11 01:27:13;;;;;;;;;;;;;;;16.35;73.16;100641.88;5021067;28;19917;-73
2022/10/11 01:29:52;;;;;;;;;;;;;;;16.38;72.75;100637.00;5036609;28;19960;-73
2022/10/11 01:32:25;;;;;;;;;;;;;;;16.23;73.71;100628.91;5019464;28;19917;-73
2022/10/11 01:34:50;;;;;;;;;;;;;;;16.08;75.04;100638.69;5018594;28;20182;-71
2022/10/11 01:37:15;;;;;;;;;;;;;;;16.11;75.04;100635.66;5018142;28;19924;-73
2022/10/11 01:39:40;;;;;;;;;;;;;;;16.11;75.05;100634.84;5020301;28;20199;-72
2022/10/11 01:42:08;;;;;;;;;;;;;;;16.14;75.07;100627.31;5020508;28;19918;-70
2022/10/11 01:44:34;;;;;;;;;;;;;;;16.17;74.84;100634.97;5019372;28;19934;-73
2022/10/11 01:47:00;;;;;;;;;;;;;;;16.14;75.01;100632.66;5018195;28;19937;-74
2022/10/11 01:49:25;;;;;;;;;;;;;;;16.03;75.50;100619.69;5020876;28;19929;-71
2022/10/11 01:51:53;;;;;;;;;;;;;;;15.93;76.08;100617.25;5021325;28;20218;-71
2022/10/11 01:54:26;;;;;;;;;;;;;;;16.00;76.02;100622.72;5020978;28;19956;-73
2022/10/11 01:57:08;;;;;;;;;;;;;;;16.07;75.36;100614.81;5037425;28;19913;-71
2022/10/11 01:59:40;;;;;;;;;;;;;;;16.15;74.78;100614.78;5018840;28;19921;-73
2022/10/11 02:02:05;;;;;;;;;;;;;;;16.15;74.32;100615.59;5033996;28;20103;-70
2022/10/11 02:04:49;;;;;;;;;;;;;;;16.07;74.04;100618.31;5024288;28;19928;-73
2022/10/11 02:07:21;;;;;;;;;;;;;;;16.03;73.32;100625.03;5024180;28;20521;-70
2022/10/11 02:10:05;;;;;;;;;;;;;;;16.05;73.72;100622.19;5025134;28;19956;-73
2022/10/11 02:12:54;;;;;;;;;;;;;;;15.95;74.17;100622.41;5024506;28;20139;-71
2022/10/11 02:15:20;;;;;;;;;;;;;;;15.92;73.36;100610.25;5019253;28;19921;-73
2022/10/11 02:17:51;;;;;;;;;;;;;;;15.86;72.42;100613.59;5023751;28;20123;-73
2022/10/11 02:20:22;;;;;;;;;;;;;;;15.83;72.20;100618.47;5039721;28;19980;-73
2022/10/11 02:22:50;;;;;;;;;;;;;;;15.62;72.39;100619.06;5024312;28;19925;-73
2022/10/11 02:25:25;;;;;;;;;;;;;;;15.49;72.07;100616.88;5040436;28;19922;-71
2022/10/11 02:27:53;;;;;;;;;;;;;;;15.40;72.16;100627.75;5023340;28;19968;-71
2022/10/11 02:30:18;;;;;;;;;;;;;;;15.21;73.23;100628.97;5025557;28;19922;-71
2022/10/11 02:32:45;;;;;;;;;;;;;;;15.19;73.19;100629.16;5024183;28;19924;-73
2022/10/11 02:35:11;;;;;;;;;;;;;;;15.18;73.33;100624.81;5024856;28;19922;-73
2022/10/11 02:37:57;;;;;;;;;;;;;;;15.26;74.00;100619.47;5024906;28;19955;-73
2022/10/11 02:40:26;;;;;;;;;;;;;;;15.38;76.77;100625.25;5024092;28;19921;-70
2022/10/11 02:43:11;;;;;;;;;;;;;;;15.49;76.64;100614.22;5022291;28;19933;-73
2022/10/11 02:45:39;;;;;;;;;;;;;;;15.58;77.79;100620.38;5022853;28;19996;-70
2022/10/11 02:48:06;;;;;;;;;;;;;;;15.67;78.63;100615.88;5022363;28;20130;-73
2022/10/11 02:50:31;;;;;;;;;;;;;;;15.68;79.20;100612.19;5023849;28;19949;-73
2022/10/11 02:52:56;;;;;;;;;;;;;;;15.75;79.40;100611.34;5039425;28;19921;-71
2022/10/11 02:55:22;;;;;;;;;;;;;;;15.86;79.07;100612.78;5024120;28;19926;-73
2022/10/11 02:57:47;;;;;;;;;;;;;;;16.05;78.64;100609.66;5024856;28;19975;-73
2022/10/11 03:00:13;;;;;;;;;;;;;;;16.03;78.28;100610.84;5022830;28;19929;-70
2022/10/11 03:02:38;;;;;;;;;;;;;;;16.03;78.66;100610.84;5024577;28;19952;-73
2022/10/11 03:05:03;;;;;;;;;;;;;;;16.11;78.49;100594.75;5021782;28;19988;-73
2022/10/11 03:07:29;;;;;;;;;;;;;;;16.15;78.48;100599.56;5021314;28;19917;-71
2022/10/11 03:09:54;;;;;;;;;;;;;;;16.35;77.24;100597.25;5023717;28;20369;-73
2022/10/11 03:12:19;;;;;;;;;;;;;;;16.31;77.44;100595.94;5023134;28;20215;-73
2022/10/11 03:14:45;;;;;;;;;;;;;;;16.22;77.98;100600.53;5020102;28;20011;-71
2022/10/11 03:17:10;;;;;;;;;;;;;;;16.25;78.20;100602.00;5023160;28;19980;-70
2022/10/11 03:19:35;;;;;;;;;;;;;;;16.19;78.26;100603.56;5023502;28;19945;-73
2022/10/11 03:22:00;;;;;;;;;;;;;;;16.22;78.49;100597.84;5021083;28;19917;-71
2022/10/11 03:24:26;;;;;;;;;;;;;;;16.26;78.16;100599.16;5022072;28;19922;-71
2022/10/11 03:26:51;;;;;;;;;;;;;;;16.33;77.95;100595.78;5023288;28;20227;-71
2022/10/11 03:29:16;;;;;;;;;;;;;;;16.30;77.83;100596.97;5021117;28;19929;-71
2022/10/11 03:31:42;;;;;;;;;;;;;;;16.31;77.90;100600.47;5024365;28;19952;-70
2022/10/11 03:34:07;;;;;;;;;;;;;;;16.31;77.84;100601.31;5022379;28;20317;-73
2022/10/11 03:36:32;;;;;;;;;;;;;;;16.28;77.97;100594.47;5020012;28;19933;-73
2022/10/11 03:38:58;;;;;;;;;;;;;;;16.21;77.79;100600.72;5023582;28;20099;-71
2022/10/11 03:41:24;;;;;;;;;;;;;;;16.28;77.63;100596.31;5022386;28;19913;-73
2022/10/11 03:43:49;;;;;;;;;;;;;;;16.31;77.59;100595.94;5020821;28;19924;-73
2022/10/11 03:46:14;;;;;;;;;;;;;;;16.35;77.44;100599.94;5022577;28;19941;-73
2022/10/11 03:48:40;;;;;;;;;;;;;;;16.12;78.06;100605.28;5022979;28;19917;-70
2022/10/11 03:51:05;;;;;;;;;;;;;;;16.07;78.38;100601.47;5020471;28;19932;-71
2022/10/11 03:53:30;;;;;;;;;;;;;;;16.11;78.16;100597.44;5023309;28;20210;-74
2022/10/11 03:55:55;;;;;;;;;;;;;;;16.10;78.37;100601.13;5021619;28;19988;-70
2022/10/11 03:58:21;;;;;;;;;;;;;;;16.03;77.45;100552.91;5022860;28;19992;-73
2022/10/11 04:00:47;;;;;;;;;;;;;;;16.11;78.63;100597.44;5022374;28;19926;-70
2022/10/11 04:03:12;;;;;;;;;;;;;;;16.08;78.61;100597.78;5022041;28;19918;-70
2022/10/11 04:05:37;;;;;;;;;;;;;;;16.16;78.19;100589.72;5023460;28;19921;-73
2022/10/11 04:08:03;;;;;;;;;;;;;;;16.27;77.52;100587.47;5037151;28;19914;-70
2022/10/11 04:10:29;;;;;;;;;;;;;;;16.18;77.73;100591.22;5021881;28;19929;-73
2022/10/11 04:12:55;;;;;;;;;;;;;;;16.15;77.96;100591.56;5022050;28;20230;-71
2022/10/11 04:15:20;;;;;;;;;;;;;;;16.28;77.67;100582.94;5021386;28;19930;-70
2022/10/11 04:17:46;;;;;;;;;;;;;;;16.36;77.26;100582.88;5020624;28;19917;-70
2022/10/11 04:20:11;;;;;;;;;;;;;;;16.39;77.10;100589.72;5022744;28;19922;-74
2022/10/11 04:22:37;;;;;;;;;;;;;;;16.47;76.26;100590.47;5020102;28;19917;-74
2022/10/11 04:25:03;;;;;;;;;;;;;;;16.36;76.93;100596.25;5018780;28;19925;-71
2022/10/11 04:27:28;;;;;;;;;;;;;;;16.35;77.02;100589.25;5018810;28;19924;-73
2022/10/11 04:29:53;;;;;;;;;;;;;;;16.33;77.02;100585.09;5018221;28;19944;-73
2022/10/11 04:32:19;;;;;;;;;;;;;;;16.36;77.26;100590.91;5030891;28;19917;-74
2022/10/11 04:34:44;;;;;;;;;;;;;;;16.44;76.75;100587.34;5018432;28;20567;-71
2022/10/11 04:37:09;;;;;;;;;;;;;;;16.50;75.95;100584.78;5019634;28;19921;-73
2022/10/11 04:39:35;;;;;;;;;;;;;;;16.49;76.46;100580.44;5018569;28;19955;-70
2022/10/11 04:42:01;;;;;;;;;;;;;;;16.46;76.23;100583.47;5017193;28;19917;-70
2022/10/11 04:44:26;;;;;;;;;;;;;;;16.43;76.78;100589.19;5019149;28;19928;-71
2022/10/11 04:46:51;;;;;;;;;;;;;;;16.47;76.58;100597.66;5017972;28;19923;-70
2022/10/11 04:49:17;;;;;;;;;;;;;;;16.48;76.36;100596.66;5018675;28;19930;-71
2022/10/11 04:51:42;;;;;;;;;;;;;;;16.56;76.16;100599.25;5017694;28;19918;-73
2022/10/11 04:54:07;;;;;;;;;;;;;;;16.54;76.04;100599.44;5019078;28;20207;-73
2022/10/11 04:56:33;;;;;;;;;;;;;;;16.59;75.74;100596.22;5017796;28;19938;-71
2022/10/11 04:58:58;;;;;;;;;;;;;;;16.73;75.38;100594.66;5029560;28;19944;-70
2022/10/11 05:01:23;;;;;;;;;;;;;;;16.64;75.93;100593.84;5018844;28;19992;-71
2022/10/11 05:03:48;;;;;;;;;;;;;;;16.45;77.28;100597.03;5017659;28;19921;-70
2022/10/11 05:06:14;;;;;;;;;;;;;;;16.37;77.80;100597.91;5019191;28;19965;-70
2022/10/11 05:08:39;;;;;;;;;;;;;;;16.39;78.10;100597.72;5017797;28;19918;-74
2022/10/11 05:11:06;;;;;;;;;;;;;;;16.41;78.14;100596.53;5018302;28;19933;-71
2022/10/11 05:13:31;;;;;;;;;;;;;;;16.52;76.92;100600.63;5017397;28;19917;-74
2022/10/11 05:15:57;;;;;;;;;;;;;;;16.55;77.16;100603.78;5018106;28;19922;-73
2022/10/11 05:18:22;;;;;;;;;;;;;;;16.63;76.83;100602.06;5032539;28;19969;-74
2022/10/11 05:20:48;;;;;;;;;;;;;;;16.72;76.56;100609.06;5017557;28;19926;-70
2022/10/11 05:23:13;;;;;;;;;;;;;;;16.68;76.57;100600.56;5018499;28;19984;-73
2022/10/11 05:25:39;;;;;;;;;;;;;;;16.76;75.96;100599.66;5017208;28;19941;-73
2022/10/11 05:28:04;;;;;;;;;;;;;;;16.74;75.94;100602.50;5017653;28;19918;-74
2022/10/11 05:30:30;;;;;;;;;;;;;;;16.75;75.89;100600.66;5018502;28;20204;-70
2022/10/11 05:32:55;;;;;;;;;;;;;;;16.76;75.86;100600.47;5017510;28;20254;-73
2022/10/11 05:35:21;;;;;;;;;;;;;;;16.68;76.40;100597.06;5017665;28;20061;-73
2022/10/11 05:37:46;;;;;;;;;;;;;;;16.65;76.74;100600.06;5018474;28;19933;-70
2022/10/11 05:40:11;;;;;;;;;;;;;;;16.54;77.45;100599.44;5021768;28;19921;-73
2022/10/11 05:42:37;;;;;;;;;;;;;;;16.51;77.51;100602.47;5022143;28;19948;-70
2022/10/11 05:45:03;;;;;;;;;;;;;;;16.45;77.95;100602.38;5020748;28;19930;-73
2022/10/11 05:47:28;;;;;;;;;;;;;;;16.60;77.50;100605.91;5022423;28;19932;-73
2022/10/11 05:49:53;;;;;;;;;;;;;;;16.14;79.68;100603.25;5020834;28;19929;-70
2022/10/11 05:52:20;;;;;;;;;;;;;;;16.10;80.80;100601.94;5022159;28;19917;-72
2022/10/11 05:54:45;;;;;;;;;;;;;;;15.75;82.51;100559.75;5021178;28;20199;-73
2022/10/11 05:57:11;;;;;;;;;;;;;;;15.82;83.10;100604.28;5017620;28;19925;-72
2022/10/11 05:59:36;;;;;;;;;;;;;;;15.56;84.20;100561.81;5021464;28;19928;-69
2022/10/11 06:02:02;;;;;;;;;;;;;;;15.45;85.21;100602.22;5022050;28;21235;-70
2022/10/11 06:04:27;;;;;;;;;;;;;;;15.35;86.93;100606.94;5020982;28;19975;-69
2022/10/11 06:06:52;;;;;;;;;;;;;;;15.32;88.83;100610.78;5021496;28;19925;-69
2022/10/11 06:09:18;;;;;;;;;;;;;;;14.95;90.10;100619.38;5020550;28;20277;-69
2022/10/11 06:11:44;;;;;;;;;;;;;;;15.14;89.73;100618.16;5022031;28;19921;-69
2022/10/11 06:14:10;;;;;;;;;;;;;;;15.29;88.93;100624.47;5020372;28;19996;-72
2022/10/11 06:16:36;;;;;;;;;;;;;;;15.39;88.96;100624.25;5020751;28;20139;-73
2022/10/11 06:19:01;;;;;;;;;;;;;;;15.51;87.61;100622.88;5020361;28;19921;-70
2022/10/11 06:21:26;;;;;;;;;;;;;;;15.57;87.08;100624.03;5019048;28;19917;-69
2022/10/11 06:23:52;;;;;;;;;;;;;;;15.47;86.88;100626.91;5021254;28;19938;-72
2022/10/11 06:26:17;;;;;;;;;;;;;;;15.63;87.06;100628.75;5021047;28;19926;-69
2022/10/11 06:28:42;;;;;;;;;;;;;;;15.74;86.37;100628.34;5021161;28;19930;-70
2022/10/11 06:31:08;;;;;;;;;;;;;;;15.88;86.24;100621.44;5021343;28;19917;-69
2022/10/11 06:33:34;;;;;;;;;;;;;;;15.85;85.07;100625.31;5020472;28;20112;-72
2022/10/11 06:36:06;;;;;;;;;;;;;;;15.97;85.08;100628.41;5020539;28;19921;-69
2022/10/11 06:38:32;;;;;;;;;;;;;;;16.05;84.16;100633.72;5021320;28;20127;-69
2022/10/11 06:41:07;;;;;;;;;;;;;;;15.76;85.15;100630.84;5019784;28;19996;-72
2022/10/11 06:43:32;;;;;;;;;;;;;;;15.76;86.15;100633.53;5020854;28;19917;-72
2022/10/11 06:45:58;;;;;;;;;;;;;;;15.74;85.67;100632.88;5020351;28;19928;-72
2022/10/11 06:48:23;;;;;;;;;;;;;;;15.74;85.89;100633.69;5024327;28;19917;-72
2022/10/11 06:50:48;;;;;;;;;;;;;;;15.94;85.13;100636.78;5024170;28;19967;-72
2022/10/11 06:53:13;;;;;;;;;;;;;;;15.99;84.96;100638.91;5024501;28;19980;-70
2022/10/11 06:55:39;;;;;;;;;;;;;;;15.88;85.48;100640.13;5024293;28;20218;-72
2022/10/11 06:58:04;;;;;;;;;;;;;;;16.00;85.68;100632.56;5023343;28;19929;-69
2022/10/11 07:00:29;;;;;;;;;;;;;;;16.17;84.62;100642.97;5024355;28;20215;-72
2022/10/11 07:02:55;;;;;;;;;;;;;;;16.18;84.09;100638.47;5024297;28;19917;-73
2022/10/11 07:05:20;;;;;;;;;;;;;;;16.34;83.12;100641.03;5024363;28;19929;-69
2022/10/11 07:07:45;;;;;;;;;;;;;;;16.31;82.92;100637.88;5024347;28;20234;-69
2022/10/11 07:10:10;;;;;;;;;;;;;;;16.27;83.21;100640.91;5024310;28;19921;-72
2022/10/11 07:12:36;;;;;;;;;;;;;;;16.23;83.50;100633.44;5024247;28;19925;-72
2022/10/11 07:15:01;;;;;;;;;;;;;;;16.15;83.83;100630.81;5023973;28;19929;-72
2022/10/11 07:17:26;;;;;;;;;;;;;;;15.99;84.62;100638.91;5024357;28;19984;-72
2022/10/11 07:19:51;;;;;;;;;;;;;;;16.11;84.77;100638.34;5023923;28;20260;-72
2022/10/11 07:22:17;;;;;;;;;;;;;;;16.04;85.41;100636.56;5023872;28;19918;-73
2022/10/11 07:24:42;;;;;;;;;;;;;;;16.04;84.60;100640.06;5022643;28;19917;-73
2022/10/11 07:27:07;;;;;;;;;;;;;;;16.05;85.08;100636.38;5023850;28;19921;-70
2022/10/11 07:29:33;;;;;;;;;;;;;;;16.15;84.60;100636.16;5023558;28;19971;-70
2022/10/11 07:31:58;;;;;;;;;;;;;;;16.36;83.94;100639.00;5024184;28;19964;-70
2022/10/11 07:34:23;;;;;;;;;;;;;;;16.38;83.86;100634.31;5023723;28;20246;-73
2022/10/11 07:36:49;;;;;;;;;;;;;;;16.50;82.94;100635.56;5023864;28;19926;-71
2022/10/11 07:39:14;;;;;;;;;;;;;;;16.57;81.78;100633.84;5020139;28;19918;-70
2022/10/11 07:41:39;;;;;;;;;;;;;;;16.38;82.63;100628.97;5019232;28;20281;-70
2022/10/11 07:44:05;;;;;;;;;;;;;;;16.46;83.09;100622.75;5018730;28;19925;-70
2022/10/11 07:46:30;;;;;;;;;;;;;;;16.51;82.14;100623.03;5018973;28;20016;-72
2022/10/11 07:48:55;;;;;;;;;;;;;;;16.60;82.31;100632.66;5019342;28;19933;-73
2022/10/11 07:51:22;;;;;;;;;;;;;;;16.51;82.12;100626.53;5019974;28;19925;-73
2022/10/11 07:53:51;;;;;;;;;;;;;;;16.37;82.64;100623.81;5015967;28;19964;-72
2022/10/11 07:56:18;;;;;;;;;;;;;;;16.55;82.31;100624.34;5020082;28;19928;-73
2022/10/11 07:58:43;;;;;;;;;;;;;;;16.75;81.80;100630.09;5031991;28;19932;-70
2022/10/11 08:01:09;;;;;;;;;;;;;;;16.66;82.56;100628.50;5011849;28;20107;-73
2022/10/11 08:03:35;;;;;;;;;;;;;;;16.92;80.24;100628.94;5019298;28;19925;-73
2022/10/11 08:06:02;;;;;;;;;;;;;;;16.97;79.52;100618.50;5017537;28;19921;-70
2022/10/11 08:08:28;;;;;;;;;;;;;;;17.18;78.54;100615.13;5019889;28;19917;-73
2022/10/11 08:10:53;;;;;;;;;;;;;;;17.14;78.83;100613.81;5014538;28;20119;-70
2022/10/11 08:13:18;;;;;;;;;;;;;;;17.30;77.67;100608.28;5019216;28;20199;-73
2022/10/11 08:15:44;;;;;;;;;;;;;;;17.35;77.81;100610.41;5019661;28;20000;-73
2022/10/11 08:18:09;;;;;;;;;;;;;;;17.12;79.21;100608.66;5018434;28;19918;-71
2022/10/11 08:20:37;;;;;;;;;;;;;;;17.35;77.86;100605.88;5019613;28;19921;-73
2022/10/11 08:23:02;;;;;;;;;;;;;;;17.39;77.47;100606.34;5018209;28;19917;-73
2022/10/11 08:25:28;;;;;;;;;;;;;;;17.59;77.48;100604.75;5018358;28;20258;-73
2022/10/11 08:27:53;;;;;;;;;;;;;;;17.81;76.01;100608.38;5019017;28;19936;-70
2022/10/11 08:30:18;;;;;;;;;;;;;;;17.92;75.45;100607.91;5018169;28;19930;-73
2022/10/11 08:32:44;;;;;;;;;;;;;;;18.00;74.67;100604.28;5018398;28;19917;-72
2022/10/11 08:35:09;;;;;;;;;;;;;;;17.91;74.74;100611.59;5017743;28;19929;-72
2022/10/11 08:37:34;;;;;;;;;;;;;;;18.06;74.35;100607.03;5018370;28;19924;-73
2022/10/11 08:40:01;;;;;;;;;;;;;;;18.30;73.26;100611.19;5019164;28;19968;-75
2022/10/11 08:42:56;;;;;;;;;;;;;;;18.28;72.60;100615.09;5018069;28;19932;-75
2022/10/11 08:45:41;;;;;;;;;;;;;;;18.31;72.78;100610.16;5008572;28;19921;-72
2022/10/11 08:48:12;;;;;;;;;;;;;;;18.64;71.40;100605.13;5018321;28;19925;-72
2022/10/11 08:50:37;;;;;;;;;;;;;;;18.70;70.85;100604.38;5017899;28;19936;-72
2022/10/11 08:53:06;;;;;;;;;;;;;;;18.22;72.44;100603.28;5017466;28;19949;-76
2022/10/11 08:55:42;;;;;;;;;;;;;;;18.37;72.45;100601.38;5019095;28;19945;-76
2022/10/11 08:58:09;;;;;;;;;;;;;;;18.54;71.83;100606.47;5018149;28;19918;-73
2022/10/11 09:00:37;;;;;;;;;;;;;;;18.70;71.11;100599.00;5017496;28;19925;-72
2022/10/11 09:03:25;;;;;;;;;;;;;;;18.50;71.05;100593.44;5018026;28;19952;-72
2022/10/11 09:05:50;;;;;;;;;;;;;;;18.26;72.55;100595.69;5009006;28;20148;-75
2022/10/11 09:08:21;;;;;;;;;;;;;;;18.61;71.37;100600.16;5018957;28;19924;-72
2022/10/11 09:11:04;;;;;;;;;;;;;;;18.79;70.65;100600.56;5018183;28;20161;-73
2022/10/11 09:13:41;;;;;;;;;;;;;;;18.97;69.73;100600.06;5018615;28;19988;-72
2022/10/11 09:16:06;;;;;;;;;;;;;;;18.96;69.08;100603.78;5031853;28;19928;-75
2022/10/11 09:18:41;;;;;;;;;;;;;;;18.36;71.24;100604.22;5021841;28;20213;-72
2022/10/11 09:21:09;;;;;;;;;;;;;;;18.52;71.37;100595.94;5019355;28;19928;-72
2022/10/11 09:23:53;;;;;;;;;;;;;;;18.76;70.86;100597.44;5020674;28;20208;-75
2022/10/11 09:26:27;;;;;;;;;;;;;;;19.00;68.88;100591.63;5020620;28;20099;-75
2022/10/11 09:29:00;;;;;;;;;;;;;;;18.75;69.23;100593.91;5021839;28;19917;-72
2022/10/11 09:31:26;;;;;;;;;;;;;;;18.67;69.53;100588.66;5021918;28;20199;-72
2022/10/11 09:33:52;;;;;;;;;;;;;;;18.42;70.55;100582.00;5021780;28;19924;-75
2022/10/11 09:36:20;;;;;;;;;;;;;;;18.35;71.27;100581.97;5021868;28;19913;-75
2022/10/11 09:38:55;;;;;;;;;;;;;;;18.37;70.75;100587.13;5021668;28;19924;-72
2022/10/11 09:41:20;;;;;;;;;;;;;;;18.61;70.63;100580.53;5021867;28;19917;-75
2022/10/11 09:43:47;;;;;;;;;;;;;;;18.94;68.97;100586.22;5021381;28;19971;-75
2022/10/11 09:46:18;;;;;;;;;;;;;;;19.15;66.97;100586.13;5020651;28;20146;-75
2022/10/11 09:48:44;;;;;;;;;;;;;;;19.13;66.96;100580.13;5021471;28;19917;-72
2022/10/11 09:51:15;;;;;;;;;;;;;;;19.20;66.86;100583.69;5021298;28;19955;-75
2022/10/11 09:53:47;;;;;;;;;;;;;;;19.39;66.06;100572.22;5020234;28;19917;-75
2022/10/11 09:56:13;;;;;;;;;;;;;;;19.54;66.09;100571.28;5022064;28;19945;-72
2022/10/11 09:58:38;;;;;;;;;;;;;;;19.51;66.43;100569.78;5021539;28;19980;-72
2022/10/11 10:01:04;;;;;;;;;;;;;;;19.81;64.42;100569.56;5021442;28;19922;-72
2022/10/11 10:03:31;;;;;;;;;;;;;;;19.95;63.32;100560.50;5022044;28;20111;-72
2022/10/11 10:06:03;;;;;;;;;;;;;;;19.85;63.50;100558.19;5021756;28;20135;-75
2022/10/11 10:08:29;;;;;;;;;;;;;;;19.65;65.24;100558.09;5021614;28;19981;-72
2022/10/11 10:10:57;;;;;;;;;;;;;;;19.71;64.25;100549.25;5021586;28;19929;-72
2022/10/11 10:13:22;;;;;;;;;;;;;;;19.83;63.78;100548.69;5019423;28;19918;-72
2022/10/11 10:15:55;;;;;;;;;;;;;;;19.85;64.60;100543.94;5017654;28;19930;-72
2022/10/11 10:18:34;;;;;;;;;;;;;;;20.08;62.53;100537.16;5017822;28;19992;-72
2022/10/11 10:21:00;;;;;;;;;;;;;;;20.11;62.42;100537.78;5017536;28;20199;-72
2022/10/11 10:23:28;;;;;;;;;;;;;;;20.13;62.04;100533.03;5011481;28;19939;-72
2022/10/11 10:26:08;;;;;;;;;;;;;;;19.49;64.34;100528.88;5020896;28;19922;-75
2022/10/11 10:28:34;;;;;;;;;;;;;;;19.48;65.82;100527.22;5021512;28;20082;-72
2022/10/11 10:30:59;;;;;;;;;;;;;;;19.69;64.73;100519.06;5020192;28;19996;-72
2022/10/11 10:33:28;;;;;;;;;;;;;;;19.52;65.24;100519.59;5023095;28;20130;-75
2022/10/11 10:35:59;;;;;;;;;;;;;;;19.73;65.34;100520.31;5021590;28;19996;-72
2022/10/11 10:38:31;;;;;;;;;;;;;;;20.13;63.54;100515.03;5020459;28;19917;-72
2022/10/11 10:41:08;;;;;;;;;;;;;;;20.24;62.30;100513.59;5020656;28;19934;-72
2022/10/11 10:43:34;;;;;;;;;;;;;;;20.35;62.24;100515.66;5020226;28;19952;-72
2022/10/11 10:46:12;;;;;;;;;;;;;;;20.56;60.11;100515.47;5020990;28;19929;-72
2022/10/11 10:48:40;;;;;;;;;;;;;;;20.58;59.78;100508.03;5021071;28;20096;-75
2022/10/11 10:51:16;;;;;;;;;;;;;;;20.64;59.71;100501.81;5019715;28;19917;-75
2022/10/11 10:53:45;;;;;;;;;;;;;;;20.61;59.24;100512.16;5016298;28;19937;-72
2022/10/11 10:56:37;;;;;;;;;;;;;;;19.93;61.54;100501.56;5020272;28;19965;-75
2022/10/11 10:59:25;;;;;;;;;;;;;;;20.03;61.44;100498.47;5017232;28;19928;-75
2022/10/11 11:02:01;;;;;;;;;;;;;;;19.96;61.34;100498.47;5012011;28;19926;-75
2022/10/11 11:04:31;;;;;;;;;;;;;;;19.97;61.61;100493.91;5020129;28;19941;-75
2022/10/11 11:07:02;;;;;;;;;;;;;;;20.12;61.86;100499.94;5019772;28;19922;-75
2022/10/11 11:09:42;;;;;;;;;;;;;;;20.15;61.94;100499.50;5020920;28;19935;-72
2022/10/11 11:12:17;;;;;;;;;;;;;;;20.37;61.00;100498.28;5020616;28;19917;-75
2022/10/11 11:14:48;;;;;;;;;;;;;;;20.50;61.10;100492.09;5033160;28;19996;-75
2022/10/11 11:17:19;;;;;;;;;;;;;;;20.64;59.74;100485.66;5017815;28;20006;-75
2022/10/11 11:19:52;;;;;;;;;;;;;;;20.65;58.72;100478.41;5021365;28;19968;-72
2022/10/11 11:22:43;;;;;;;;;;;;;;;20.60;60.16;100478.22;5024227;28;20141;-75
2022/10/11 11:25:27;;;;;;;;;;;;;;;20.43;61.08;100477.81;5024164;28;19988;-75
2022/10/11 11:28:07;;;;;;;;;;;;;;;20.80;59.30;100468.22;5023997;28;19918;-75
2022/10/11 11:30:33;;;;;;;;;;;;;;;20.87;59.12;100461.00;5023961;28;20154;-75
2022/10/11 11:33:04;;;;;;;;;;;;;;;20.80;59.17;100456.63;5023791;28;19917;-72
2022/10/11 11:35:32;;;;;;;;;;;;;;;20.86;58.85;100445.88;5023386;28;19930;-73
2022/10/11 11:38:02;;;;;;;;;;;;;;;20.81;57.89;100445.69;5023842;28;20213;-75
2022/10/11 11:40:27;;;;;;;;;;;;;;;20.78;58.39;100448.78;5023332;28;19922;-75
2022/10/11 11:42:54;;;;;;;;;;;;;;;20.66;58.72;100442.38;5023571;28;20179;-72
2022/10/11 11:45:25;;;;;;;;;;;;;;;20.37;58.98;100443.66;5023527;28;19953;-74
2022/10/11 11:47:57;;;;;;;;;;;;;;;20.23;59.40;100434.78;5021107;28;19940;-72
2022/10/11 11:50:23;;;;;;;;;;;;;;;20.19;59.70;100443.47;5023362;28;19960;-75
2022/10/11 11:52:52;;;;;;;;;;;;;;;20.27;60.21;100446.75;5023156;28;19932;-72
2022/10/11 11:55:36;;;;;;;;;;;;;;;20.35;59.93;100443.03;5023514;28;19928;-75
2022/10/11 11:58:20;;;;;;;;;;;;;;;20.36;59.84;100447.38;5023336;28;20738;-75
2022/10/11 12:01:00;;;;;;;;;;;;;;;20.36;60.19;100445.53;5023689;28;19921;-75
2022/10/11 12:03:40;;;;;;;;;;;;;;;20.49;59.25;100447.38;5023573;28;19922;-75
2022/10/11 12:06:24;;;;;;;;;;;;;;;20.36;59.49;100442.81;5023159;28;20056;-72
2022/10/11 12:09:08;;;;;;;;;;;;;;;20.65;58.34;100438.88;5022965;28;19933;-72
2022/10/11 12:11:36;;;;;;;;;;;;;;;20.79;58.90;100441.53;5023009;28;19988;-75
2022/10/11 12:14:13;;;;;;;;;;;;;;;20.94;57.91;100445.66;5022794;28;19937;-75
2022/10/11 12:16:58;;;;;;;;;;;;;;;21.11;56.05;100440.59;5023060;28;19918;-75
2022/10/11 12:19:24;;;;;;;;;;;;;;;21.03;56.42;100436.28;5022435;28;20116;-75
2022/10/11 12:22:09;;;;;;;;;;;;;;;20.74;58.44;100434.09;5022869;28;19964;-72
2022/10/11 12:24:54;;;;;;;;;;;;;;;20.80;57.47;100444.00;5018177;28;19922;-72
2022/10/11 12:27:38;;;;;;;;;;;;;;;20.60;58.49;100433.28;5018670;28;19963;-74
2022/10/11 12:30:04;;;;;;;;;;;;;;;20.58;58.68;100439.94;5018404;28;19929;-75
2022/10/11 12:32:37;;;;;;;;;;;;;;;20.57;59.02;100431.03;5016241;28;19952;-74
2022/10/11 12:35:23;;;;;;;;;;;;;;;20.60;57.94;100432.47;5016518;28;20225;-76
2022/10/11 12:37:49;;;;;;;;;;;;;;;20.60;57.91;100424.41;5017388;28;19921;-75
2022/10/11 12:40:35;;;;;;;;;;;;;;;20.67;58.16;100425.22;5030277;28;20150;-75
2022/10/11 12:43:23;;;;;;;;;;;;;;;20.45;58.67;100421.94;5017243;28;19937;-76